createdAt,value
2023-05-18T00:02:29.730Z,2.30
2023-05-18T00:05:34.758Z,2.17
2023-05-18T00:08:39.503Z,1.75
2023-05-18T00:11:44.086Z,2.45
2023-05-18T00:14:48.658Z,2.45
2023-05-18T00:17:53.429Z,2.05
2023-05-18T00:21:00.958Z,1.88
2023-05-18T00:24:05.846Z,1.83
2023-05-18T00:27:10.336Z,2.17
2023-05-18T00:30:17.700Z,1.80
2023-05-18T00:33:23.364Z,1.58
2023-05-18T00:36:36.605Z,1.63
2023-05-18T00:39:41.718Z,1.80
2023-05-18T00:42:46.224Z,2.33
2023-05-18T00:45:50.816Z,1.95
2023-05-18T00:49:02.051Z,1.90
2023-05-18T00:52:07.063Z,1.90
2023-05-18T00:55:14.333Z,1.75
2023-05-18T00:58:19.425Z,1.70
2023-05-18T01:01:29.142Z,1.90
2023-05-18T01:04:35.326Z,2.03
2023-05-18T01:07:42.657Z,1.80
2023-05-18T01:10:54.673Z,1.55
2023-05-18T01:14:15.989Z,1.90
2023-05-18T01:17:42.037Z,1.98
2023-05-18T01:20:57.821Z,2.20
2023-05-18T01:24:45.663Z,1.70
2023-05-18T01:27:52.270Z,1.90
2023-05-18T01:30:58.474Z,1.60
2023-05-18T01:34:03.735Z,1.85
2023-05-18T01:37:09.338Z,1.77
2023-05-18T01:40:13.806Z,1.77
2023-05-18T01:43:21.556Z,1.50
2023-05-18T01:47:00.830Z,1.77
2023-05-18T01:50:18.361Z,2.17
2023-05-18T01:53:39.584Z,1.50
2023-05-18T01:56:48.985Z,1.80
2023-05-18T02:00:10.481Z,1.85
2023-05-18T02:03:22.500Z,1.77
2023-05-18T02:06:27.002Z,1.90
2023-05-18T02:09:32.219Z,2.08
2023-05-18T02:12:36.791Z,2.15
2023-05-18T02:15:42.042Z,1.70
2023-05-18T02:18:46.412Z,1.90
2023-05-18T02:21:52.168Z,2.22
2023-05-18T02:24:56.884Z,2.08
2023-05-18T02:28:01.304Z,1.70
2023-05-18T02:31:11.852Z,1.67
2023-05-18T02:34:17.128Z,2.10
2023-05-18T02:37:23.272Z,1.60
2023-05-18T02:40:28.565Z,1.77
2023-05-18T02:43:33.490Z,1.75
2023-05-18T02:46:38.663Z,1.70
2023-05-18T02:49:44.322Z,1.90
2023-05-18T02:52:50.042Z,1.98
2023-05-18T02:55:58.303Z,1.80
2023-05-18T02:59:10.548Z,2.03
2023-05-18T03:02:18.775Z,2.17
2023-05-18T03:05:23.908Z,1.88
2023-05-18T03:08:29.021Z,2.00
2023-05-18T03:11:33.745Z,2.00
2023-05-18T03:14:38.772Z,1.85
2023-05-18T03:17:43.793Z,2.53
2023-05-18T03:20:52.052Z,2.13
2023-05-18T03:23:56.713Z,2.67
2023-05-18T03:27:02.347Z,1.90
2023-05-18T03:30:07.544Z,3.35
2023-05-18T03:33:12.250Z,2.10
2023-05-18T03:36:17.072Z,2.38
2023-05-18T03:39:22.425Z,2.60
2023-05-18T03:42:27.415Z,2.13
2023-05-18T03:45:32.118Z,2.33
2023-05-18T03:48:37.466Z,2.20
2023-05-18T03:51:41.872Z,2.60
2023-05-18T03:54:46.619Z,2.67
2023-05-18T03:57:51.373Z,2.38
2023-05-18T04:00:56.421Z,2.83
2023-05-18T04:04:01.090Z,2.50
2023-05-18T04:07:06.091Z,2.10
2023-05-18T04:10:14.840Z,2.13
2023-05-18T04:13:20.594Z,2.58
2023-05-18T04:16:25.547Z,2.10
2023-05-18T04:19:34.907Z,2.40
2023-05-18T04:22:48.562Z,2.42
2023-05-18T04:25:56.446Z,2.42
2023-05-18T04:29:01.387Z,2.17
2023-05-18T04:32:10.864Z,2.97
2023-05-18T04:35:16.769Z,2.33
2023-05-18T04:38:24.959Z,2.33
2023-05-18T04:41:30.481Z,1.95
2023-05-18T04:44:36.585Z,2.22
2023-05-18T04:47:47.611Z,2.05
2023-05-18T04:50:56.149Z,2.58
2023-05-18T04:54:03.301Z,2.38
2023-05-18T04:57:08.015Z,1.80
2023-05-18T05:00:15.051Z,2.33
2023-05-18T05:03:19.998Z,2.08
2023-05-18T05:06:24.510Z,2.03
2023-05-18T05:09:30.528Z,1.70
2023-05-18T05:12:37.608Z,1.80
2023-05-18T05:15:43.364Z,2.17
2023-05-18T05:18:47.973Z,1.77
2023-05-18T05:21:53.661Z,1.95
2023-05-18T05:24:58.821Z,1.77
2023-05-18T05:28:03.848Z,1.58
2023-05-18T05:31:09.510Z,1.70
2023-05-18T05:34:14.700Z,1.85
2023-05-18T05:37:19.463Z,1.60
2023-05-18T05:40:24.655Z,1.90
2023-05-18T05:43:31.011Z,1.52
2023-05-18T05:46:35.770Z,1.75
2023-05-18T05:49:41.491Z,1.80
2023-05-18T05:52:46.268Z,2.13
2023-05-18T05:55:51.293Z,2.20
2023-05-18T05:58:56.604Z,1.38
2023-05-18T06:02:02.309Z,1.55
2023-05-18T06:05:08.488Z,1.60
2023-05-18T06:08:13.315Z,1.67
2023-05-18T06:11:19.149Z,1.52
2023-05-18T06:14:23.948Z,1.80
2023-05-18T06:17:30.767Z,1.67
2023-05-18T06:20:36.275Z,1.63
2023-05-18T06:23:42.113Z,1.60
2023-05-18T06:27:05.820Z,1.48
2023-05-18T06:30:27.749Z,1.80
2023-05-18T06:33:53.016Z,1.80
2023-05-18T06:36:58.586Z,1.90
2023-05-18T06:40:04.928Z,1.52
2023-05-18T06:43:09.837Z,1.90
2023-05-18T06:46:34.422Z,1.70
2023-05-18T06:49:41.054Z,1.67
2023-05-18T06:52:45.454Z,1.65
2023-05-18T06:55:50.175Z,1.58
2023-05-18T06:58:55.302Z,1.35
2023-05-18T07:02:00.520Z,1.65
2023-05-18T07:05:09.313Z,1.88
2023-05-18T07:08:14.292Z,1.33
2023-05-18T07:11:18.971Z,1.63
2023-05-18T07:14:23.982Z,1.80
2023-05-18T07:17:28.454Z,1.60
2023-05-18T07:20:34.439Z,1.50
2023-05-18T07:23:39.364Z,1.77
2023-05-18T07:26:44.141Z,1.90
2023-05-18T07:29:48.651Z,1.75
2023-05-18T07:32:53.592Z,1.52
2023-05-18T07:36:00.546Z,1.58
2023-05-18T07:39:05.061Z,1.30
2023-05-18T07:42:09.572Z,1.45
2023-05-18T07:45:14.298Z,1.10
2023-05-18T07:48:19.247Z,1.23
2023-05-18T07:51:24.033Z,1.70
2023-05-18T07:54:28.871Z,1.50
2023-05-18T07:57:35.607Z,2.25
2023-05-18T08:00:40.235Z,1.50
2023-05-18T08:03:45.217Z,1.88
2023-05-18T08:06:50.072Z,1.60
2023-05-18T08:09:54.566Z,1.50
2023-05-18T08:12:59.012Z,1.60
2023-05-18T08:19:15.264Z,1.75
2023-05-18T08:22:20.927Z,1.77
2023-05-18T08:25:25.610Z,1.77
2023-05-18T08:28:31.297Z,1.20
2023-05-18T08:31:40.571Z,1.67
2023-05-18T08:34:45.200Z,1.88
2023-05-18T08:37:50.620Z,1.45
2023-05-18T08:41:23.172Z,1.95
2023-05-18T08:44:58.802Z,1.50
2023-05-18T08:48:05.027Z,1.80
2023-05-18T08:51:10.996Z,1.25
2023-05-18T08:54:23.096Z,1.88
2023-05-18T08:57:30.755Z,2.00
2023-05-18T09:00:36.018Z,1.70
2023-05-18T09:03:41.803Z,1.45
2023-05-18T09:06:49.085Z,1.30
2023-05-18T09:09:55.568Z,1.67
2023-05-18T09:13:01.561Z,1.70
2023-05-18T09:16:08.255Z,1.60
2023-05-18T09:19:13.140Z,2.03
2023-05-18T09:22:17.791Z,1.70
2023-05-18T09:25:24.739Z,1.90
2023-05-18T09:28:37.006Z,1.92
2023-05-18T09:31:41.900Z,1.75
2023-05-18T09:34:48.391Z,1.60
2023-05-18T09:37:53.299Z,1.42
2023-05-18T09:40:58.136Z,1.83
2023-05-18T09:44:09.279Z,1.10
2023-05-18T09:47:13.824Z,1.70
2023-05-18T09:50:25.669Z,1.25
2023-05-18T09:53:30.478Z,2.20
2023-05-18T09:56:38.834Z,1.77
2023-05-18T09:59:43.355Z,1.60
2023-05-18T10:02:52.426Z,1.92
2023-05-18T10:06:07.212Z,1.70
2023-05-18T10:09:20.719Z,1.88
2023-05-18T10:12:25.132Z,1.80
2023-05-18T10:15:30.229Z,1.70
2023-05-18T10:18:37.781Z,2.00
2023-05-18T10:21:44.448Z,1.55
2023-05-18T10:24:52.732Z,1.38
2023-05-18T10:28:04.437Z,2.05
2023-05-18T10:31:09.316Z,2.03
2023-05-18T10:34:14.910Z,2.65
2023-05-18T10:37:22.341Z,2.53
2023-05-18T10:40:29.555Z,2.05
2023-05-18T10:43:36.590Z,2.00
2023-05-18T10:46:42.142Z,2.00
2023-05-18T10:49:52.341Z,2.10
2023-05-18T10:52:59.770Z,2.33
2023-05-18T10:56:05.004Z,1.88
2023-05-18T10:59:11.868Z,2.45
2023-05-18T11:02:18.764Z,1.77
2023-05-18T11:05:26.869Z,1.90
2023-05-18T11:08:31.832Z,2.08
2023-05-18T11:11:59.597Z,2.20
2023-05-18T11:15:06.097Z,2.10
2023-05-18T11:18:15.372Z,1.40
2023-05-18T11:21:49.912Z,2.15
2023-05-18T11:24:54.443Z,1.88
2023-05-18T11:28:02.166Z,2.13
2023-05-18T11:31:06.824Z,1.75
2023-05-18T11:34:42.524Z,1.33
2023-05-18T11:37:48.963Z,1.70
2023-05-18T11:40:53.726Z,1.63
2023-05-18T11:44:14.934Z,2.22
2023-05-18T11:47:19.615Z,1.70
2023-05-18T11:50:24.191Z,2.40
2023-05-18T11:53:31.389Z,1.95
2023-05-18T11:56:51.372Z,2.10
2023-05-18T11:59:58.014Z,2.55
2023-05-18T12:03:04.247Z,2.35
2023-05-18T12:06:09.325Z,2.47
2023-05-18T12:09:15.648Z,3.00
2023-05-18T12:12:20.552Z,2.30
2023-05-18T12:15:25.305Z,2.13
2023-05-18T12:18:34.236Z,2.40
2023-05-18T12:21:38.843Z,1.77
2023-05-18T12:24:44.314Z,2.00
2023-05-18T12:27:50.366Z,2.40
2023-05-18T12:30:59.166Z,2.08
2023-05-18T12:34:03.791Z,1.92
2023-05-18T12:37:09.062Z,1.80
2023-05-18T12:40:16.295Z,2.33
2023-05-18T12:43:21.588Z,2.50
2023-05-18T12:46:26.184Z,2.08
2023-05-18T12:49:38.117Z,2.80
2023-05-18T12:52:42.758Z,2.53
2023-05-18T12:56:00.178Z,2.42
2023-05-18T12:59:06.619Z,2.22
2023-05-18T13:02:24.362Z,2.05
2023-05-18T13:05:28.908Z,2.38
2023-05-18T13:08:35.765Z,1.60
2023-05-18T13:11:41.119Z,2.30
2023-05-18T13:14:45.341Z,2.83
2023-05-18T13:18:03.106Z,2.45
2023-05-18T13:21:07.868Z,2.30
2023-05-18T13:24:13.097Z,2.10
2023-05-18T13:27:17.876Z,2.67
2023-05-18T13:30:23.348Z,2.60
2023-05-18T13:33:27.980Z,2.08
2023-05-18T13:36:35.831Z,2.60
2023-05-18T13:39:40.545Z,2.63
2023-05-18T13:42:46.616Z,2.40
2023-05-18T13:45:51.161Z,2.78
2023-05-18T13:48:55.779Z,2.30
2023-05-18T13:52:00.444Z,2.63
2023-05-18T13:55:07.132Z,3.03
2023-05-18T13:58:11.512Z,2.60
2023-05-18T14:01:17.897Z,2.70
2023-05-18T14:04:22.617Z,2.53
2023-05-18T14:07:27.409Z,2.72
2023-05-18T14:10:32.485Z,3.67
2023-05-18T14:13:36.916Z,3.20
2023-05-18T14:16:41.340Z,2.63
2023-05-18T14:19:45.996Z,2.60
2023-05-18T14:22:51.043Z,2.95
2023-05-18T14:25:56.004Z,2.83
2023-05-18T14:29:00.637Z,3.08
2023-05-18T14:32:06.028Z,3.20
2023-05-18T14:35:10.671Z,2.25
2023-05-18T14:38:15.201Z,2.63
2023-05-18T14:41:21.466Z,3.33
2023-05-18T14:44:26.297Z,2.30
2023-05-18T14:47:30.901Z,3.22
2023-05-18T14:50:38.388Z,2.35
2023-05-18T14:53:43.383Z,3.13
2023-05-18T14:56:47.943Z,2.75
2023-05-18T14:59:52.805Z,3.75
2023-05-18T15:02:58.125Z,3.10
2023-05-18T15:06:03.005Z,2.60
2023-05-18T15:09:08.382Z,2.20
2023-05-18T15:12:13.049Z,2.40
2023-05-18T15:15:17.404Z,2.67
2023-05-18T15:18:22.278Z,2.95
2023-05-18T15:21:26.899Z,2.25
2023-05-18T15:24:31.628Z,2.35
2023-05-18T15:27:37.945Z,2.60
2023-05-18T15:30:42.491Z,2.20
2023-05-18T15:33:47.516Z,2.00
2023-05-18T15:36:53.403Z,3.20
2023-05-18T15:39:58.877Z,2.42
2023-05-18T15:43:03.661Z,2.13
2023-05-18T15:46:08.542Z,2.75
2023-05-18T15:49:13.085Z,2.50
2023-05-18T15:52:17.880Z,2.95
2023-05-18T15:55:22.349Z,2.90
2023-05-18T15:58:27.232Z,2.40
2023-05-18T16:01:31.571Z,2.33
2023-05-18T16:04:36.435Z,2.53
2023-05-18T16:07:42.439Z,2.20
2023-05-18T16:10:46.821Z,2.90
2023-05-18T16:13:56.727Z,2.00
2023-05-18T16:17:03.949Z,2.00
2023-05-18T16:20:09.376Z,2.20
2023-05-18T16:23:13.695Z,2.90
2023-05-18T16:26:18.337Z,2.67
2023-05-18T16:29:23.040Z,2.40
2023-05-18T16:32:27.911Z,2.40
2023-05-18T16:35:32.415Z,2.70
2023-05-18T16:38:37.748Z,2.63
2023-05-18T16:41:42.130Z,3.03
2023-05-18T16:44:46.768Z,3.00
2023-05-18T16:47:52.153Z,2.63
2023-05-18T16:50:56.861Z,3.13
2023-05-18T16:54:01.277Z,3.00
2023-05-18T16:57:06.294Z,2.80
2023-05-18T17:00:11.713Z,3.50
2023-05-18T17:03:17.321Z,2.55
2023-05-18T17:06:22.065Z,2.50
2023-05-18T17:09:26.729Z,2.33
2023-05-18T17:12:31.902Z,2.85
2023-05-18T17:15:37.052Z,2.70
2023-05-18T17:18:43.186Z,3.05
2023-05-18T17:21:49.326Z,2.60
2023-05-18T17:24:53.729Z,2.10
2023-05-18T17:27:58.814Z,1.98
2023-05-18T17:31:04.114Z,2.33
2023-05-18T17:34:08.884Z,2.08
2023-05-18T17:37:13.660Z,2.30
2023-05-18T17:40:18.260Z,2.20
2023-05-18T17:43:23.227Z,2.25
2023-05-18T17:46:28.065Z,2.30
2023-05-18T17:49:33.091Z,1.90
2023-05-18T17:52:37.809Z,2.40
2023-05-18T17:55:42.579Z,1.80
2023-05-18T17:58:47.284Z,1.80
2023-05-18T18:01:52.046Z,2.30
2023-05-18T18:04:57.125Z,1.92
2023-05-18T18:08:02.637Z,2.22
2023-05-18T18:11:09.194Z,1.77
2023-05-18T18:14:17.146Z,1.90
2023-05-18T18:17:23.811Z,2.08
2023-05-18T18:20:29.060Z,1.50
2023-05-18T18:23:38.450Z,1.75
2023-05-18T18:26:42.664Z,1.83
2023-05-18T18:29:48.936Z,2.08
2023-05-18T18:32:53.883Z,2.08
2023-05-18T18:35:59.155Z,1.80
2023-05-18T18:39:04.180Z,1.98
2023-05-18T18:42:08.804Z,1.92
2023-05-18T18:45:13.607Z,1.60
2023-05-18T18:48:21.321Z,1.63
2023-05-18T18:51:26.017Z,1.70
2023-05-18T18:54:31.118Z,1.48
2023-05-18T18:57:36.052Z,1.48
2023-05-18T19:00:40.738Z,1.75
2023-05-18T19:03:45.832Z,1.40
2023-05-18T19:06:53.967Z,1.60
2023-05-18T19:09:58.677Z,1.60
2023-05-18T19:13:06.035Z,1.80
2023-05-18T19:16:17.279Z,1.70
2023-05-18T19:19:22.170Z,1.70
2023-05-18T19:22:26.648Z,1.63
2023-05-18T19:25:31.671Z,2.00
2023-05-18T19:28:36.460Z,1.60
2023-05-18T19:31:44.763Z,2.03
2023-05-18T19:34:49.754Z,2.00
2023-05-18T19:37:54.286Z,1.60
2023-05-18T19:40:58.823Z,1.27
2023-05-18T19:44:03.537Z,2.00
2023-05-18T19:47:07.947Z,1.33
2023-05-18T19:50:13.287Z,1.70
2023-05-18T19:53:18.150Z,1.48
2023-05-18T19:56:23.120Z,1.77
2023-05-18T19:59:29.506Z,1.35
2023-05-18T20:02:34.075Z,1.70
2023-05-18T20:05:38.897Z,1.88
2023-05-18T20:08:43.724Z,2.20
2023-05-18T20:11:48.505Z,2.38
2023-05-18T20:14:53.218Z,2.30
2023-05-18T20:17:58.563Z,2.35
2023-05-18T20:21:03.404Z,2.00
2023-05-18T20:24:08.095Z,1.88
2023-05-18T20:27:15.213Z,1.65
2023-05-18T20:30:19.831Z,1.70
2023-05-18T20:33:24.929Z,1.65
2023-05-18T20:36:30.185Z,2.25
2023-05-18T20:39:34.928Z,2.40
2023-05-18T20:42:40.837Z,1.98
2023-05-18T20:45:46.582Z,2.10
2023-05-18T20:48:55.080Z,2.00
2023-05-18T20:52:00.071Z,1.80
2023-05-18T20:55:04.933Z,2.28
2023-05-18T20:58:10.398Z,2.20
2023-05-18T21:01:16.686Z,2.83
2023-05-18T21:04:21.465Z,2.25
2023-05-18T21:07:25.968Z,3.00
2023-05-18T21:10:32.140Z,2.30
2023-05-18T21:13:37.288Z,2.63
2023-05-18T21:16:41.885Z,2.25
2023-05-18T21:19:46.681Z,2.40
2023-05-18T21:22:51.650Z,2.38
2023-05-18T21:25:57.376Z,2.67
2023-05-18T21:29:02.117Z,2.30
2023-05-18T21:32:07.155Z,2.45
2023-05-18T21:35:11.688Z,2.20
2023-05-18T21:38:17.480Z,2.17
2023-05-18T21:41:22.374Z,2.08
2023-05-18T21:44:27.000Z,2.03
2023-05-18T21:47:31.851Z,2.10
2023-05-18T21:50:36.456Z,2.55
2023-05-18T21:53:40.880Z,2.35
2023-05-18T21:56:45.833Z,2.53
2023-05-18T21:59:50.495Z,2.22
2023-05-18T22:02:55.664Z,2.45
2023-05-18T22:06:00.163Z,2.95
2023-05-18T22:09:06.158Z,1.80
2023-05-18T22:12:10.629Z,2.13
2023-05-18T22:15:17.119Z,2.47
2023-05-18T22:18:23.631Z,2.50
2023-05-18T22:21:28.347Z,2.60
2023-05-18T22:24:32.749Z,2.58
2023-05-18T22:27:38.537Z,2.50
2023-05-18T22:30:43.111Z,2.53
2023-05-18T22:33:47.913Z,3.03
2023-05-18T22:36:52.474Z,3.78
2023-05-18T22:39:57.379Z,2.70
2023-05-18T22:43:02.271Z,3.65
2023-05-18T22:46:07.907Z,3.33
2023-05-18T22:49:12.172Z,3.13
2023-05-18T22:52:18.664Z,3.67
2023-05-18T22:55:23.438Z,3.03
2023-05-18T22:58:28.269Z,3.00
2023-05-18T23:01:33.296Z,2.90
2023-05-18T23:04:37.996Z,3.13
2023-05-18T23:07:43.110Z,3.30
2023-05-18T23:10:48.399Z,3.28
2023-05-18T23:13:53.425Z,3.17
2023-05-18T23:16:58.563Z,3.25
2023-05-18T23:20:04.721Z,3.53
2023-05-18T23:23:09.160Z,3.55
2023-05-18T23:26:13.850Z,3.30
2023-05-18T23:29:18.452Z,3.60
2023-05-18T23:32:23.660Z,3.20
2023-05-18T23:35:28.634Z,3.28
2023-05-18T23:38:35.120Z,3.40
2023-05-18T23:41:41.457Z,3.22
2023-05-18T23:44:48.102Z,3.30
2023-05-18T23:47:56.006Z,3.47
2023-05-18T23:51:02.781Z,4.30
2023-05-18T23:54:07.647Z,2.97
2023-05-18T23:57:12.771Z,3.40
